Buoy 13526

sailwx.info

Track history (hours):
 
Tides and Currents Weather Stations Pressure Air Temp Water Temp Dewpoint Dewpoint Depression Visibility Wind Speed Wind Dir Waves Ship Positions

Drifting buoy 13526

Last reported at 2016-Jun-30 13:05 UTC. Time now 2016-Jun-30 14:17 UTC.
Position N 29°15' W 054°22'.

Water temperature 26.8 ° C

Date/timePositionNaut miles runAvg speedWind from/ knotsBaromVisibWave heightAir tempDewpointWater temp
2016-Jun-30 13:05N 29°15' W 054°22'1 1.1 26.8
2016-Jun-30 12:11N 29°14' W 054°22'0 0.0 26.8
2016-Jun-30 11:36N 29°14' W 054°22'1 6.1 26.8
2016-Jun-30 11:28N 29°13' W 054°22'0 0.0 26.8
2016-Jun-30 10:45N 29°13' W 054°22'0 1.2 26.8
2016-Jun-30 10:36N 29°13' W 054°22'1 7.4 26.8
2016-Jun-30 10:29N 29°13' W 054°21'0 0.0 26.8
2016-Jun-30 09:53N 29°13' W 054°21'115.3 26.7
2016-Jun-30 09:50N 29°12' W 054°20'0 0.0 26.7
2016-Jun-30 08:54N 29°12' W 054°20'0 3.4 26.8
2016-Jun-30 08:47N 29°12' W 054°20'1 1.2 26.8
2016-Jun-30 08:09N 29°11' W 054°20'0 0.0 26.8
2016-Jun-30 07:11N 29°11' W 054°20'1 7.3 26.8
2016-Jun-30 07:03N 29°10' W 054°20'2 0.4 26.8
2016-Jun-30 01:38N 29°08' W 054°19'1 5.0 26.9
2016-Jun-30 01:30N 29°08' W 054°20'0 0.0 26.9
2016-Jun-30 00:51N 29°08' W 054°20'0 1.2 26.9
2016-Jun-30 00:47N 29°07' W 054°20'1 9.0 26.9
2016-Jun-30 00:43N 29°07' W 054°20'0 0.0 26.9
2016-Jun-29 23:54N 29°07' W 054°20'0 0.8 26.9
2016-Jun-29 23:25N 29°06' W 054°20'0 4.8 26.9
2016-Jun-29 23:22N 29°07' W 054°20'0 0.5 26.9
2016-Jun-29 23:08N 29°06' W 054°20'1 1.8 26.9
2016-Jun-29 22:20N 29°05' W 054°20'0 0.0
2016-Jun-29 21:47N 29°05' W 054°20'1 2.4 26.9
2016-Jun-29 21:31N 29°05' W 054°21'0 0.0 27.0
2016-Jun-29 21:27N 29°05' W 054°21'0 0.0 27.0
2016-Jun-29 21:24N 29°05' W 054°21'0 0.7 27.0
2016-Jun-29 20:47N 29°04' W 054°20'1 3.0 27.0
2016-Jun-29 20:36N 29°04' W 054°20'0 0.0 27.0
2016-Jun-29 20:02N 29°04' W 054°20'0 0.4 27.0
2016-Jun-29 19:48N 29°04' W 054°21'1 1.8 27.0
2016-Jun-29 19:02N 29°03' W 054°20'0 0.4 27.0
2016-Jun-29 18:43N 29°03' W 054°20'0 5.7 27.0
2016-Jun-29 18:38N 29°03' W 054°20'2 1.2 27.0
2016-Jun-29 17:04N 29°01' W 054°20'0 1.2 27.0
2016-Jun-29 17:00N 29°01' W 054°20'222.4 27.0
2016-Jun-29 16:54N 28°59' W 054°18'0 0.0 27.0
2016-Jun-29 15:06N 28°59' W 054°18'0 0.0
2016-Jun-29 14:22N 28°59' W 054°18'0 3.7 26.9
2016-Jun-29 14:16N 28°59' W 054°18'0 0.0 26.9
2016-Jun-29 13:36N 28°59' W 054°18'0 0.0 26.8
2016-Jun-29 13:31N 28°59' W 054°18'0 0.5 26.8
2016-Jun-29 12:36N 28°58' W 054°18'0 2.4 26.8
2016-Jun-29 12:31N 28°58' W 054°18'0 0.0 26.8
2016-Jun-29 11:47N 28°58' W 054°18'114.0 26.7
2016-Jun-29 11:41N 28°57' W 054°17'0 0.0 26.7
2016-Jun-29 11:07N 28°57' W 054°17'0 7.3 26.8
2016-Jun-29 11:04N 28°57' W 054°17'1 0.6 26.8
2016-Jun-29 10:07N 28°57' W 054°16'0 2.9 26.8
2016-Jun-29 10:00N 28°57' W 054°17'0 0.0 26.8
2016-Jun-29 09:32N 28°57' W 054°17'0 3.2 26.8
2016-Jun-29 09:24N 28°57' W 054°16'1 0.7 26.8
2016-Jun-29 07:46N 28°56' W 054°16'0 0.0 26.8
2016-Jun-29 07:23N 28°56' W 054°16'0 1.6 26.8
2016-Jun-29 07:17N 28°56' W 054°16'0 0.2 26.8
2016-Jun-29 05:44N 28°55' W 054°16'2 8.5 26.9
2016-Jun-29 05:33N 28°54' W 054°16'0 0.0 26.9
2016-Jun-29 01:58N 28°54' W 054°16'1 4.3 26.9
2016-Jun-29 01:51N 28°53' W 054°16'0 0.5 26.9
2016-Jun-29 01:08N 28°53' W 054°16'0 0.0 26.9
2016-Jun-29 01:05N 28°53' W 054°16'1 1.2 26.9
2016-Jun-29 00:19N 28°53' W 054°16'0 3.1 26.9
2016-Jun-29 00:11N 28°53' W 054°16'0 0.0 26.9
2016-Jun-28 23:52N 28°53' W 054°16'1 2.0 26.9
2016-Jun-28 23:29N 28°52' W 054°16'0 5.9 26.9
2016-Jun-28 23:25N 28°52' W 054°16'0 0.0 26.9
2016-Jun-28 22:47N 28°52' W 054°16'1 1.0 26.9
2016-Jun-28 22:16N 28°52' W 054°17'1 1.3 27.0
2016-Jun-28 21:42N 28°51' W 054°16'0 1.1 27.0
2016-Jun-28 21:39N 28°51' W 054°16'1 7.1 27.0
2016-Jun-28 21:34N 28°51' W 054°17'1 2.2 27.0
2016-Jun-28 21:02N 28°50' W 054°16'1 1.1 27.0
2016-Jun-28 20:01N 28°49' W 054°17'1 2.4 27.1
2016-Jun-28 19:29N 28°48' W 054°17'0 0.0 27.2
2016-Jun-28 18:53N 28°48' W 054°17'0 5.8 27.2
2016-Jun-28 18:49N 28°48' W 054°17'1 0.9 27.2
2016-Jun-28 17:15N 28°46' W 054°16'214.2 27.1
2016-Jun-28 17:06N 28°44' W 054°16'1 0.3 27.1
2016-Jun-28 14:42N 28°44' W 054°16'0 2.9 27.1
2016-Jun-28 14:37N 28°44' W 054°15'3 0.5 27.0
2016-Jun-28 07:34N 28°40' W 054°15'0 3.3 26.9
2016-Jun-28 07:30N 28°41' W 054°16'1 0.8 26.9
2016-Jun-28 05:50N 28°39' W 054°16'334.8 26.9
2016-Jun-28 05:44N 28°36' W 054°16'0 0.0 26.9
2016-Jun-28 02:18N 28°36' W 054°16'116.7 27.0
2016-Jun-28 02:14N 28°35' W 054°16'0 0.0 27.0
2016-Jun-28 01:31N 28°35' W 054°16'0 0.0 27.0
2016-Jun-28 01:28N 28°35' W 054°16'113.7 27.0
2016-Jun-28 01:23N 28°34' W 054°16'0 0.0 27.0
2016-Jun-28 00:40N 28°34' W 054°16'0 0.0 27.1
2016-Jun-28 00:36N 28°34' W 054°16'118.0 27.1
2016-Jun-28 00:33N 28°33' W 054°16'0 0.0 27.1
2016-Jun-27 23:51N 28°33' W 054°16'0 0.0 27.1
2016-Jun-27 23:48N 28°33' W 054°16'1 1.3 27.1
2016-Jun-27 22:57N 28°32' W 054°16'0 0.8 27.1
2016-Jun-27 22:48N 28°32' W 054°16'1 6.1 27.2
2016-Jun-27 22:42N 28°31' W 054°15'1 0.9 27.2
2016-Jun-27 21:52N 28°31' W 054°15'0 1.3 27.2
2016-Jun-27 21:36N 28°31' W 054°15'1 5.6 27.3
2016-Jun-27 21:29N 28°30' W 054°16'1 0.9 27.3
2016-Jun-27 19:53N 28°29' W 054°15'1 1.1 27.3
2016-Jun-27 19:04N 28°28' W 054°15'0 6.4 27.4
2016-Jun-27 19:00N 28°28' W 054°15'1 0.9 27.4
2016-Jun-27 17:23N 28°27' W 054°15'0 0.0 27.4
2016-Jun-27 17:22N 28°27' W 054°15'351.1 27.4
2016-Jun-27 17:19N 28°24' W 054°14'0 0.0 27.4
2016-Jun-27 15:02N 28°24' W 054°14'025.0 27.3
2016-Jun-27 15:01N 28°25' W 054°14'1 1.2 27.3
2016-Jun-27 14:16N 28°24' W 054°14'1 6.0 27.3
2016-Jun-27 14:07N 28°23' W 054°13'0 0.0 27.3
2016-Jun-27 13:22N 28°23' W 054°13'1 0.7 27.2
2016-Jun-27 12:35N 28°22' W 054°13'1 2.2 27.2
2016-Jun-27 12:04N 28°21' W 054°13'0 0.0 27.2
2016-Jun-27 11:38N 28°21' W 054°13'0 0.0
2016-Jun-27 10:34N 28°21' W 054°13'0 1.7 27.2
2016-Jun-27 10:23N 28°21' W 054°13'0 0.0 27.2
2016-Jun-27 10:20N 28°21' W 054°13'1 6.4 27.2
2016-Jun-27 10:11N 28°20' W 054°12'0 0.0 27.2
2016-Jun-27 08:46N 28°20' W 054°12'0 1.2 27.1
2016-Jun-27 08:43N 28°20' W 054°12'0 1.3 27.1
2016-Jun-27 08:37N 28°20' W 054°12'1 0.7 27.1
2016-Jun-27 07:47N 28°20' W 054°12'0 0.0 27.2
2016-Jun-27 07:42N 28°20' W 054°12'1 0.6 27.2
2016-Jun-27 06:07N 28°19' W 054°12'0 2.4 27.2
2016-Jun-27 06:01N 28°19' W 054°12'218.3 27.2
2016-Jun-27 05:53N 28°17' W 054°12'0 0.0 27.2
2016-Jun-27 02:37N 28°17' W 054°12'117.3
2016-Jun-27 02:35N 28°16' W 054°11'0 0.0 27.2
2016-Jun-27 01:49N 28°16' W 054°11'1 0.8 27.2
2016-Jun-27 00:53N 28°15' W 054°11'0 0.0 27.2
2016-Jun-27 00:07N 28°15' W 054°11'0 1.6 27.2
2016-Jun-27 00:05N 28°15' W 054°11'1 0.7 27.2
2016-Jun-26 23:19N 28°15' W 054°11'0 0.0 27.2
2016-Jun-26 23:16N 28°15' W 054°11'1 0.5 27.2
2016-Jun-26 22:02N 28°14' W 054°10'0 9.6 27.3
2016-Jun-26 22:01N 28°14' W 054°10'0 2.9 27.3
2016-Jun-26 21:56N 28°14' W 054°10'0 0.2 27.3
2016-Jun-26 21:38N 28°14' W 054°10'1 0.6 27.4
2016-Jun-26 20:24N 28°13' W 054°10'1 0.9 27.4
2016-Jun-26 19:18N 28°13' W 054°09'0 0.0 27.4
2016-Jun-26 19:15N 28°13' W 054°09'1 0.8 27.4
2016-Jun-26 17:39N 28°11' W 054°09'1 4.2 27.4
2016-Jun-26 17:30N 28°11' W 054°08'2 1.1 27.4
2016-Jun-26 15:19N 28°09' W 054°07'0 0.0 27.3
2016-Jun-26 14:36N 28°09' W 054°07'0 0.0 27.3
2016-Jun-26 14:32N 28°09' W 054°07'1 0.8 27.3
2016-Jun-26 13:44N 28°09' W 054°06'0 3.6 27.2
2016-Jun-26 13:43N 28°09' W 054°06'1 0.6 27.2
2016-Jun-26 11:54N 28°08' W 054°05'0 0.3
2016-Jun-26 10:45N 28°08' W 054°05'1 7.3 27.2
2016-Jun-26 10:37N 28°08' W 054°04'0 0.0 27.2
2016-Jun-26 09:23N 28°08' W 054°04'0 0.0 27.1
2016-Jun-26 09:19N 28°08' W 054°04'0 1.0 27.1
2016-Jun-26 08:53N 28°07' W 054°04'0 0.2 27.1
2016-Jun-26 07:53N 28°07' W 054°04'0 2.1 27.2
2016-Jun-26 07:41N 28°07' W 054°04'1 0.4 27.2
2016-Jun-26 06:13N 28°07' W 054°03'114.7 27.2
2016-Jun-26 06:07N 28°05' W 054°02'0 0.0 27.2
2016-Jun-26 02:05N 28°05' W 054°02'1 0.9 27.2
2016-Jun-26 01:20N 28°05' W 054°02'0 2.0 27.2
2016-Jun-26 01:11N 28°05' W 054°02'0 0.0 27.2
2016-Jun-26 00:33N 28°05' W 054°02'0 0.0 27.2
2016-Jun-26 00:28N 28°05' W 054°02'0 0.9 27.2
2016-Jun-26 00:24N 28°04' W 054°02'0 0.0 27.2
2016-Jun-25 23:47N 28°04' W 054°02'118.6 27.2
2016-Jun-25 23:44N 28°04' W 054°01'118.6 27.2
2016-Jun-25 23:41N 28°04' W 054°02'0 5.8 27.2
2016-Jun-25 23:36N 28°04' W 054°01'0 0.4 27.2
2016-Jun-25 22:23N 28°04' W 054°01'0 0.8 27.2
2016-Jun-25 22:07N 28°04' W 054°01'143.8 27.2
2016-Jun-25 22:06N 28°03' W 054°00'0 0.0 27.2
2016-Jun-25 20:46N 28°03' W 054°00'0 3.5 27.2
2016-Jun-25 20:41N 28°04' W 053°60'0 0.0 27.2
2016-Jun-25 20:35N 28°04' W 053°60'0 2.3 27.2
2016-Jun-25 20:26N 28°04' W 053°60'0 0.0 27.2
2016-Jun-25 19:29N 28°04' W 053°60'0 9.7 27.2
2016-Jun-25 19:26N 28°03' W 053°60'1 0.6 27.2
2016-Jun-25 17:50N 28°03' W 053°59'0 0.3 27.2
2016-Jun-25 16:07N 28°03' W 053°58'1 1.0 27.2
2016-Jun-25 14:53N 28°02' W 053°57'1 0.7 27.2
2016-Jun-25 14:04N 28°02' W 053°57'1 0.7 27.2
2016-Jun-25 13:18N 28°01' W 053°57'0 0.8 27.2
2016-Jun-25 13:12N 28°01' W 053°57'1 7.3 27.2
2016-Jun-25 13:06N 28°01' W 053°56'1 0.3 27.2
2016-Jun-25 11:05N 28°01' W 053°55'011.3 27.1
2016-Jun-25 11:03N 28°01' W 053°55'0 0.0 27.1
2016-Jun-25 10:53N 28°01' W 053°55'0 1.8 27.1
2016-Jun-25 10:51N 28°01' W 053°55'1 9.0 27.1
2016-Jun-25 10:46N 28°01' W 053°54'0 0.3 27.1
2016-Jun-25 09:47N 28°01' W 053°54'0 0.3 27.0
2016-Jun-25 09:31N 28°01' W 053°54'0 2.1 27.0
2016-Jun-25 09:25N 28°01' W 053°53'0 1.7 27.0
2016-Jun-25 09:11N 28°01' W 053°54'1 0.6 27.0
2016-Jun-25 08:05N 28°00' W 053°53'1 3.2 27.0
2016-Jun-25 07:46N 28°00' W 053°52'0 0.0 27.0
2016-Jun-25 06:30N 28°00' W 053°52'1 0.8 27.1
2016-Jun-25 04:45N 27°60' W 053°50'1 0.6 27.1
2016-Jun-25 02:27N 28°01' W 053°49'0 0.0 27.3
2016-Jun-25 01:38N 28°01' W 053°49'110.2 27.3
2016-Jun-25 01:34N 28°01' W 053°49'1 0.7 27.3
2016-Jun-25 00:47N 28°02' W 053°49'0 0.3 27.4
2016-Jun-24 23:12N 28°02' W 053°50'0 0.0 27.5
2016-Jun-24 22:46N 28°02' W 053°50'0 0.0 27.5
2016-Jun-24 22:38N 28°02' W 053°50'0 1.6
2016-Jun-24 22:35N 28°02' W 053°50'0 0.9 27.6
2016-Jun-24 22:23N 28°02' W 053°50'123.4 27.6
2016-Jun-24 22:20N 28°03' W 053°51'0 0.0 27.6
2016-Jun-24 21:08N 28°03' W 053°51'0 1.9 27.9
2016-Jun-24 21:03N 28°03' W 053°51'0 0.4 27.9
2016-Jun-24 20:48N 28°03' W 053°51'0 0.4 27.9
2016-Jun-24 19:37N 28°02' W 053°51'1 3.7 28.5
2016-Jun-24 19:22N 28°02' W 053°52'2 0.4 28.5
2016-Jun-24 14:20N 28°02' W 053°50'0 0.1 27.0
2016-Jun-24 13:35N 28°01' W 053°50'0 0.3 26.9
2016-Jun-24 12:43N 28°01' W 053°50'0 3.2 26.9
2016-Jun-24 12:37N 28°01' W 053°50'0 0.0 26.9
2016-Jun-24 11:51N 28°01' W 053°50'0 0.9 26.8
2016-Jun-24 11:31N 28°02' W 053°49'0 0.7 26.8
2016-Jun-24 11:02N 28°01' W 053°49'0 0.0 26.8
2016-Jun-24 10:24N 28°01' W 053°49'0 2.7 26.8
2016-Jun-24 10:18N 28°01' W 053°50'1 1.4 26.8
2016-Jun-24 09:56N 28°01' W 053°49'0 0.1 26.8
2016-Jun-24 09:22N 28°01' W 053°49'0 0.2 26.7
2016-Jun-24 08:46N 28°01' W 053°49'0 1.6 26.7
2016-Jun-24 08:38N 28°02' W 053°49'0 0.6 26.7
2016-Jun-24 08:16N 28°01' W 053°49'013.2 26.7
2016-Jun-24 08:15N 28°02' W 053°49'1 0.3 26.7
2016-Jun-24 06:41N 28°02' W 053°48'0 4.9 26.8
2016-Jun-24 06:37N 28°02' W 053°48'2 0.9 26.8
2016-Jun-24 04:51N 28°03' W 053°47'0 0.0 26.8
2016-Jun-24 02:02N 28°03' W 053°47'0 1.6 26.9
2016-Jun-24 01:53N 28°02' W 053°47'0 0.2 26.9
2016-Jun-24 01:07N 28°03' W 053°47'0 0.3 26.9
2016-Jun-24 00:23N 28°03' W 053°47'0 0.2 26.9
2016-Jun-23 23:29N 28°03' W 053°46'0 0.1 26.9
2016-Jun-23 23:07N 28°03' W 053°46'0 0.2 26.9
2016-Jun-23 22:35N 28°03' W 053°46'0 5.2 27.0
2016-Jun-23 22:32N 28°03' W 053°46'0 0.5 27.0
2016-Jun-23 21:35N 28°03' W 053°46'0 0.0 27.0
2016-Jun-23 21:28N 28°03' W 053°46'1 1.4 27.0
2016-Jun-23 20:53N 28°03' W 053°47'0 0.3
2016-Jun-23 19:53N 28°02' W 053°46'0 4.9 27.1
2016-Jun-23 19:50N 28°02' W 053°46'0 0.7 27.1
2016-Jun-23 19:14N 28°02' W 053°46'0 0.1 27.1
2016-Jun-23 18:07N 28°02' W 053°46'116.3 27.2
2016-Jun-23 18:05N 28°02' W 053°46'1 0.4 27.2
2016-Jun-23 16:30N 28°02' W 053°46'1 0.9 27.1
2016-Jun-23 14:46N 28°00' W 053°46'0 1.4 27.1
2016-Jun-23 14:41N 28°00' W 053°46'0 0.0 27.1
2016-Jun-23 13:59N 28°00' W 053°46'0 0.5 27.0
2016-Jun-23 13:05N 27°60' W 053°46'1 0.8 27.0
2016-Jun-23 12:11N 27°59' W 053°45'0 0.0 27.0
2016-Jun-23 11:16N 27°59' W 053°45'0 3.0 27.0
2016-Jun-23 11:08N 27°59' W 053°45'0 1.0
2016-Jun-23 10:53N 27°59' W 053°45'1 1.1 27.0
2016-Jun-23 10:22N 27°59' W 053°45'0 0.0 27.0
2016-Jun-23 10:19N 27°59' W 053°45'0 0.4 27.0
2016-Jun-23 09:39N 27°58' W 053°45'0 1.7 27.0
2016-Jun-23 09:33N 27°59' W 053°45'0 5.9 27.0
2016-Jun-23 09:29N 27°58' W 053°45'0 0.0 27.0
2016-Jun-23 09:16N 27°58' W 053°45'0 0.4 27.0
2016-Jun-23 08:41N 27°58' W 053°45'0 0.0 27.0
2016-Jun-23 08:37N 27°58' W 053°45'1 4.7 27.0
2016-Jun-23 08:29N 27°59' W 053°44'112.1 27.0
2016-Jun-23 08:23N 27°57' W 053°44'0 0.0
2016-Jun-23 07:34N 27°57' W 053°44'0 0.0 27.0
2016-Jun-23 06:52N 27°57' W 053°44'0 1.1 27.0
2016-Jun-23 06:49N 27°57' W 053°44'116.4 27.0
2016-Jun-23 06:45N 27°57' W 053°43'2 1.0 27.0
2016-Jun-23 05:02N 27°56' W 053°42'0 0.0 27.0
2016-Jun-23 02:21N 27°56' W 053°42'0 9.0 27.0
2016-Jun-23 02:18N 27°55' W 053°42'0 0.3 27.0
2016-Jun-23 01:27N 27°55' W 053°41'0 0.2 27.0
2016-Jun-23 00:43N 27°55' W 053°42'0 1.1 27.0
2016-Jun-23 00:40N 27°55' W 053°42'110.2 27.0
2016-Jun-23 00:35N 27°55' W 053°41'0 0.0 27.0
2016-Jun-22 23:54N 27°55' W 053°41'0 0.0 27.1
2016-Jun-22 23:51N 27°55' W 053°41'1 0.8 27.1
2016-Jun-22 23:00N 27°55' W 053°40'0 0.0 27.1
2016-Jun-22 22:49N 27°55' W 053°40'0 0.4 27.1
2016-Jun-22 22:03N 27°55' W 053°40'0 0.0 27.1
2016-Jun-22 21:51N 27°55' W 053°40'0 0.1 27.1
2016-Jun-22 21:07N 27°55' W 053°40'0 0.4 27.2
2016-Jun-22 20:21N 27°55' W 053°39'0 5.1
2016-Jun-22 20:19N 27°55' W 053°39'0 0.8 27.2
2016-Jun-22 19:59N 27°55' W 053°40'0 0.0 27.2
2016-Jun-22 19:28N 27°55' W 053°40'1 0.6 27.2
2016-Jun-22 18:16N 27°55' W 053°39'0 0.0 27.2
2016-Jun-22 16:38N 27°55' W 053°39'1 0.4 27.1
2016-Jun-22 15:05N 27°54' W 053°39'0 6.5 27.0
2016-Jun-22 15:02N 27°54' W 053°39'0 0.0 27.0
2016-Jun-22 14:19N 27°54' W 053°39'1 8.2 27.0
2016-Jun-22 14:13N 27°54' W 053°38'1 0.9 27.0
2016-Jun-22 13:25N 27°54' W 053°39'1 0.3 26.9
2016-Jun-22 11:30N 27°54' W 053°39'0 0.0 26.9
2016-Jun-22 11:27N 27°54' W 053°39'0 0.7 26.9
2016-Jun-22 10:46N 27°53' W 053°38'1 0.8 26.9
2016-Jun-22 09:49N 27°53' W 053°38'0 1.3 26.9
2016-Jun-22 09:44N 27°53' W 053°38'1 7.2 26.9
2016-Jun-22 09:38N 27°52' W 053°37'0 0.0 26.9
2016-Jun-22 08:38N 27°52' W 053°37'0 0.6
2016-Jun-22 08:08N 27°52' W 053°37'1 0.7 26.9
2016-Jun-22 07:03N 27°52' W 053°36'0 1.1 26.9
2016-Jun-22 07:00N 27°52' W 053°36'211.4 26.9
2016-Jun-22 06:52N 27°50' W 053°35'1 0.8 27.0
2016-Jun-22 05:13N 27°51' W 053°33'0 0.0 27.0
2016-Jun-22 02:41N 27°51' W 053°33'112.8 27.0
2016-Jun-22 02:38N 27°50' W 053°33'0 0.0 27.0
2016-Jun-22 01:53N 27°50' W 053°33'0 5.1 27.0
2016-Jun-22 01:49N 27°50' W 053°32'0 0.1 27.0
2016-Jun-22 01:01N 27°50' W 053°32'1 0.9 27.1
2016-Jun-22 00:15N 27°50' W 053°32'1 4.3 27.1
2016-Jun-22 00:06N 27°50' W 053°31'0 0.0 27.1
2016-Jun-21 23:23N 27°50' W 053°31'0 0.4 27.2
2016-Jun-21 23:00N 27°50' W 053°31'0 1.0 27.2
2016-Jun-21 22:37N 27°50' W 053°30'0 1.2 27.2
2016-Jun-21 22:22N 27°50' W 053°30'112.8 27.2
2016-Jun-21 22:19N 27°50' W 053°30'0 0.0 27.2
2016-Jun-21 21:22N 27°50' W 053°30'0 0.0 27.2
2016-Jun-21 21:19N 27°50' W 053°30'0 3.3 27.2
2016-Jun-21 21:14N 27°51' W 053°29'0 1.4 27.2
2016-Jun-21 20:58N 27°50' W 053°29'0 0.0 27.2
2016-Jun-21 20:53N 27°50' W 053°29'0 1.8 27.2
2016-Jun-21 20:44N 27°50' W 053°29'0 0.1 27.2
2016-Jun-21 19:39N 27°50' W 053°29'1 0.7 27.2
2016-Jun-21 18:27N 27°50' W 053°28'1 0.5 27.2
2016-Jun-21 16:52N 27°49' W 053°28'2 1.2 27.2
2016-Jun-21 15:23N 27°48' W 053°26'0 0.0 27.1
2016-Jun-21 14:39N 27°48' W 053°26'0 3.4 27.0
2016-Jun-21 14:36N 27°48' W 053°26'1 0.9 27.0
2016-Jun-21 13:45N 27°48' W 053°25'1 1.2 27.0
2016-Jun-21 13:01N 27°47' W 053°25'1 3.4 27.0
2016-Jun-21 12:51N 27°47' W 053°24'1 0.7 27.0
2016-Jun-21 11:58N 27°47' W 053°24'0 0.0 27.0
2016-Jun-21 11:39N 27°47' W 053°24'1 1.6 27.0
2016-Jun-21 11:07N 27°46' W 053°23'1 0.8 27.0
2016-Jun-21 10:17N 27°47' W 053°22'1 2.5 26.9
2016-Jun-21 10:00N 27°46' W 053°21'0 0.0 26.9
2016-Jun-21 09:54N 27°46' W 053°21'0 1.6 26.9
2016-Jun-21 09:51N 27°46' W 053°21'1 0.8 26.9
2016-Jun-21 08:40N 27°46' W 053°20'0 0.9 27.0
2016-Jun-21 08:32N 27°46' W 053°20'1 3.0 27.0
2016-Jun-21 08:12N 27°46' W 053°19'0 0.0 27.0
2016-Jun-21 07:48N 27°46' W 053°19'0 0.1 27.0
2016-Jun-21 07:13N 27°46' W 053°19'1 8.2 27.0
2016-Jun-21 07:06N 27°46' W 053°18'0 0.1 27.0
2016-Jun-21 05:30N 27°46' W 053°18'3 1.1 27.0
2016-Jun-21 02:14N 27°46' W 053°14'0 0.0 27.0
2016-Jun-21 01:23N 27°46' W 053°14'0 3.9 27.0
2016-Jun-21 01:17N 27°46' W 053°14'0 0.1 27.0
2016-Jun-21 00:29N 27°46' W 053°14'1 1.1 27.0
2016-Jun-20 23:43N 27°46' W 053°13'0 4.9 27.0
2016-Jun-20 23:40N 27°45' W 053°13'1 1.3 27.0
2016-Jun-20 23:07N 27°46' W 053°12'0 0.0 27.0
2016-Jun-20 23:04N 27°46' W 053°12'2 1.5 27.0
2016-Jun-20 21:32N 27°45' W 053°10'0 5.1 27.1
2016-Jun-20 21:30N 27°45' W 053°10'0 1.2 27.1
2016-Jun-20 21:22N 27°45' W 053°10'2 4.6 27.1
2016-Jun-20 21:02N 27°44' W 053°08'0 0.1 27.1
2016-Jun-20 19:52N 27°44' W 053°08'1 2.9 27.2
2016-Jun-20 19:29N 27°45' W 053°07'0 0.0 27.2
2016-Jun-20 18:43N 27°45' W 053°07'0 2.1 27.2
2016-Jun-20 18:40N 27°45' W 053°07'2 1.1 27.2
2016-Jun-20 17:05N 27°44' W 053°05'0 1.6 27.2
2016-Jun-20 17:02N 27°44' W 053°05'2 1.1 27.2
2016-Jun-20 14:53N 27°44' W 053°02'1 1.0 27.0
2016-Jun-20 14:07N 27°45' W 053°01'1 7.3 27.0
2016-Jun-20 14:01N 27°45' W 053°01'0 0.0 27.0
2016-Jun-20 13:22N 27°45' W 053°01'0 1.7 27.0
2016-Jun-20 13:16N 27°45' W 053°01'   27.0
Track history (hours):
 
Tides and Currents Weather Stations Pressure Air Temp Water Temp Dewpoint Dewpoint Depression Visibility Wind Speed Wind Dir Waves Ship Positions

Drifting buoy 13526

Last reported at 2016-Jun-30 13:05 UTC. Time now 2016-Jun-30 14:17 UTC.
Position N 29°15' W 054°22'.

Water temperature 26.8 ° C

Date/timePositionNaut miles runAvg speedWind from/ knotsBaromVisibWave heightAir tempDewpointWater temp
2016-Jun-30 13:05N 29°15' W 054°22'1 1.1 26.8
2016-Jun-30 12:11N 29°14' W 054°22'0 0.0 26.8
2016-Jun-30 11:36N 29°14' W 054°22'1 6.1 26.8
2016-Jun-30 11:28N 29°13' W 054°22'0 0.0 26.8
2016-Jun-30 10:45N 29°13' W 054°22'0 1.2 26.8
2016-Jun-30 10:36N 29°13' W 054°22'1 7.4 26.8
2016-Jun-30 10:29N 29°13' W 054°21'0 0.0 26.8
2016-Jun-30 09:53N 29°13' W 054°21'115.3 26.7
2016-Jun-30 09:50N 29°12' W 054°20'0 0.0 26.7
2016-Jun-30 08:54N 29°12' W 054°20'0 3.4 26.8
2016-Jun-30 08:47N 29°12' W 054°20'1 1.2 26.8
2016-Jun-30 08:09N 29°11' W 054°20'0 0.0 26.8
2016-Jun-30 07:11N 29°11' W 054°20'1 7.3 26.8
2016-Jun-30 07:03N 29°10' W 054°20'2 0.4 26.8
2016-Jun-30 01:38N 29°08' W 054°19'1 5.0 26.9
2016-Jun-30 01:30N 29°08' W 054°20'0 0.0 26.9
2016-Jun-30 00:51N 29°08' W 054°20'0 1.2 26.9
2016-Jun-30 00:47N 29°07' W 054°20'1 9.0 26.9
2016-Jun-30 00:43N 29°07' W 054°20'0 0.0 26.9
2016-Jun-29 23:54N 29°07' W 054°20'0 0.8 26.9
2016-Jun-29 23:25N 29°06' W 054°20'0 4.8 26.9
2016-Jun-29 23:22N 29°07' W 054°20'0 0.5 26.9
2016-Jun-29 23:08N 29°06' W 054°20'1 1.8 26.9
2016-Jun-29 22:20N 29°05' W 054°20'0 0.0
2016-Jun-29 21:47N 29°05' W 054°20'1 2.4 26.9
2016-Jun-29 21:31N 29°05' W 054°21'0 0.0 27.0
2016-Jun-29 21:27N 29°05' W 054°21'0 0.0 27.0
2016-Jun-29 21:24N 29°05' W 054°21'0 0.7 27.0
2016-Jun-29 20:47N 29°04' W 054°20'1 3.0 27.0
2016-Jun-29 20:36N 29°04' W 054°20'0 0.0 27.0
2016-Jun-29 20:02N 29°04' W 054°20'0 0.4 27.0
2016-Jun-29 19:48N 29°04' W 054°21'1 1.8 27.0
2016-Jun-29 19:02N 29°03' W 054°20'0 0.4 27.0
2016-Jun-29 18:43N 29°03' W 054°20'0 5.7 27.0
2016-Jun-29 18:38N 29°03' W 054°20'2 1.2 27.0
2016-Jun-29 17:04N 29°01' W 054°20'0 1.2 27.0
2016-Jun-29 17:00N 29°01' W 054°20'222.4 27.0
2016-Jun-29 16:54N 28°59' W 054°18'0 0.0 27.0
2016-Jun-29 15:06N 28°59' W 054°18'0 0.0
2016-Jun-29 14:22N 28°59' W 054°18'0 3.7 26.9
2016-Jun-29 14:16N 28°59' W 054°18'0 0.0 26.9
2016-Jun-29 13:36N 28°59' W 054°18'0 0.0 26.8
2016-Jun-29 13:31N 28°59' W 054°18'0 0.5 26.8
2016-Jun-29 12:36N 28°58' W 054°18'0 2.4 26.8
2016-Jun-29 12:31N 28°58' W 054°18'0 0.0 26.8
2016-Jun-29 11:47N 28°58' W 054°18'114.0 26.7
2016-Jun-29 11:41N 28°57' W 054°17'0 0.0 26.7
2016-Jun-29 11:07N 28°57' W 054°17'0 7.3 26.8
2016-Jun-29 11:04N 28°57' W 054°17'1 0.6 26.8
2016-Jun-29 10:07N 28°57' W 054°16'0 2.9 26.8
2016-Jun-29 10:00N 28°57' W 054°17'0 0.0 26.8
2016-Jun-29 09:32N 28°57' W 054°17'0 3.2 26.8
2016-Jun-29 09:24N 28°57' W 054°16'1 0.7 26.8
2016-Jun-29 07:46N 28°56' W 054°16'0 0.0 26.8
2016-Jun-29 07:23N 28°56' W 054°16'0 1.6 26.8
2016-Jun-29 07:17N 28°56' W 054°16'0 0.2 26.8
2016-Jun-29 05:44N 28°55' W 054°16'2 8.5 26.9
2016-Jun-29 05:33N 28°54' W 054°16'0 0.0 26.9
2016-Jun-29 01:58N 28°54' W 054°16'1 4.3 26.9
2016-Jun-29 01:51N 28°53' W 054°16'0 0.5 26.9
2016-Jun-29 01:08N 28°53' W 054°16'0 0.0 26.9
2016-Jun-29 01:05N 28°53' W 054°16'1 1.2 26.9
2016-Jun-29 00:19N 28°53' W 054°16'0 3.1 26.9
2016-Jun-29 00:11N 28°53' W 054°16'0 0.0 26.9
2016-Jun-28 23:52N 28°53' W 054°16'1 2.0 26.9
2016-Jun-28 23:29N 28°52' W 054°16'0 5.9 26.9
2016-Jun-28 23:25N 28°52' W 054°16'0 0.0 26.9
2016-Jun-28 22:47N 28°52' W 054°16'1 1.0 26.9
2016-Jun-28 22:16N 28°52' W 054°17'1 1.3 27.0
2016-Jun-28 21:42N 28°51' W 054°16'0 1.1 27.0
2016-Jun-28 21:39N 28°51' W 054°16'1 7.1 27.0
2016-Jun-28 21:34N 28°51' W 054°17'1 2.2 27.0
2016-Jun-28 21:02N 28°50' W 054°16'1 1.1 27.0
2016-Jun-28 20:01N 28°49' W 054°17'1 2.4 27.1
2016-Jun-28 19:29N 28°48' W 054°17'0 0.0 27.2
2016-Jun-28 18:53N 28°48' W 054°17'0 5.8 27.2
2016-Jun-28 18:49N 28°48' W 054°17'1 0.9 27.2
2016-Jun-28 17:15N 28°46' W 054°16'214.2 27.1
2016-Jun-28 17:06N 28°44' W 054°16'1 0.3 27.1
2016-Jun-28 14:42N 28°44' W 054°16'0 2.9 27.1
2016-Jun-28 14:37N 28°44' W 054°15'3 0.5 27.0
2016-Jun-28 07:34N 28°40' W 054°15'0 3.3 26.9
2016-Jun-28 07:30N 28°41' W 054°16'1 0.8 26.9
2016-Jun-28 05:50N 28°39' W 054°16'334.8 26.9
2016-Jun-28 05:44N 28°36' W 054°16'0 0.0 26.9
2016-Jun-28 02:18N 28°36' W 054°16'116.7 27.0
2016-Jun-28 02:14N 28°35' W 054°16'0 0.0 27.0
2016-Jun-28 01:31N 28°35' W 054°16'0 0.0 27.0
2016-Jun-28 01:28N 28°35' W 054°16'113.7 27.0
2016-Jun-28 01:23N 28°34' W 054°16'0 0.0 27.0
2016-Jun-28 00:40N 28°34' W 054°16'0 0.0 27.1
2016-Jun-28 00:36N 28°34' W 054°16'118.0 27.1
2016-Jun-28 00:33N 28°33' W 054°16'0 0.0 27.1
2016-Jun-27 23:51N 28°33' W 054°16'0 0.0 27.1
2016-Jun-27 23:48N 28°33' W 054°16'1 1.3 27.1
2016-Jun-27 22:57N 28°32' W 054°16'0 0.8 27.1
2016-Jun-27 22:48N 28°32' W 054°16'1 6.1 27.2
2016-Jun-27 22:42N 28°31' W 054°15'1 0.9 27.2
2016-Jun-27 21:52N 28°31' W 054°15'0 1.3 27.2
2016-Jun-27 21:36N 28°31' W 054°15'1 5.6 27.3
2016-Jun-27 21:29N 28°30' W 054°16'1 0.9 27.3
2016-Jun-27 19:53N 28°29' W 054°15'1 1.1 27.3
2016-Jun-27 19:04N 28°28' W 054°15'0 6.4 27.4
2016-Jun-27 19:00N 28°28' W 054°15'1 0.9 27.4
2016-Jun-27 17:23N 28°27' W 054°15'0 0.0 27.4
2016-Jun-27 17:22N 28°27' W 054°15'351.1 27.4
2016-Jun-27 17:19N 28°24' W 054°14'0 0.0 27.4
2016-Jun-27 15:02N 28°24' W 054°14'025.0 27.3
2016-Jun-27 15:01N 28°25' W 054°14'1 1.2 27.3
2016-Jun-27 14:16N 28°24' W 054°14'1 6.0 27.3
2016-Jun-27 14:07N 28°23' W 054°13'0 0.0 27.3
2016-Jun-27 13:22N 28°23' W 054°13'1 0.7 27.2
2016-Jun-27 12:35N 28°22' W 054°13'1 2.2 27.2
2016-Jun-27 12:04N 28°21' W 054°13'0 0.0 27.2
2016-Jun-27 11:38N 28°21' W 054°13'0 0.0
2016-Jun-27 10:34N 28°21' W 054°13'0 1.7 27.2
2016-Jun-27 10:23N 28°21' W 054°13'0 0.0 27.2
2016-Jun-27 10:20N 28°21' W 054°13'1 6.4 27.2
2016-Jun-27 10:11N 28°20' W 054°12'0 0.0 27.2
2016-Jun-27 08:46N 28°20' W 054°12'0 1.2 27.1
2016-Jun-27 08:43N 28°20' W 054°12'0 1.3 27.1
2016-Jun-27 08:37N 28°20' W 054°12'1 0.7 27.1
2016-Jun-27 07:47N 28°20' W 054°12'0 0.0 27.2
2016-Jun-27 07:42N 28°20' W 054°12'1 0.6 27.2
2016-Jun-27 06:07N 28°19' W 054°12'0 2.4 27.2
2016-Jun-27 06:01N 28°19' W 054°12'218.3 27.2
2016-Jun-27 05:53N 28°17' W 054°12'0 0.0 27.2
2016-Jun-27 02:37N 28°17' W 054°12'117.3
2016-Jun-27 02:35N 28°16' W 054°11'0 0.0 27.2
2016-Jun-27 01:49N 28°16' W 054°11'1 0.8 27.2
2016-Jun-27 00:53N 28°15' W 054°11'0 0.0 27.2
2016-Jun-27 00:07N 28°15' W 054°11'0 1.6 27.2
2016-Jun-27 00:05N 28°15' W 054°11'1 0.7 27.2
2016-Jun-26 23:19N 28°15' W 054°11'0 0.0 27.2
2016-Jun-26 23:16N 28°15' W 054°11'1 0.5 27.2
2016-Jun-26 22:02N 28°14' W 054°10'0 9.6 27.3
2016-Jun-26 22:01N 28°14' W 054°10'0 2.9 27.3
2016-Jun-26 21:56N 28°14' W 054°10'0 0.2 27.3
2016-Jun-26 21:38N 28°14' W 054°10'1 0.6 27.4
2016-Jun-26 20:24N 28°13' W 054°10'1 0.9 27.4
2016-Jun-26 19:18N 28°13' W 054°09'0 0.0 27.4
2016-Jun-26 19:15N 28°13' W 054°09'1 0.8 27.4
2016-Jun-26 17:39N 28°11' W 054°09'1 4.2 27.4
2016-Jun-26 17:30N 28°11' W 054°08'2 1.1 27.4
2016-Jun-26 15:19N 28°09' W 054°07'0 0.0 27.3
2016-Jun-26 14:36N 28°09' W 054°07'0 0.0 27.3
2016-Jun-26 14:32N 28°09' W 054°07'1 0.8 27.3
2016-Jun-26 13:44N 28°09' W 054°06'0 3.6 27.2
2016-Jun-26 13:43N 28°09' W 054°06'1 0.6 27.2
2016-Jun-26 11:54N 28°08' W 054°05'0 0.3
2016-Jun-26 10:45N 28°08' W 054°05'1 7.3 27.2
2016-Jun-26 10:37N 28°08' W 054°04'0 0.0 27.2
2016-Jun-26 09:23N 28°08' W 054°04'0 0.0 27.1
2016-Jun-26 09:19N 28°08' W 054°04'0 1.0 27.1
2016-Jun-26 08:53N 28°07' W 054°04'0 0.2 27.1
2016-Jun-26 07:53N 28°07' W 054°04'0 2.1 27.2
2016-Jun-26 07:41N 28°07' W 054°04'1 0.4 27.2
2016-Jun-26 06:13N 28°07' W 054°03'114.7 27.2
2016-Jun-26 06:07N 28°05' W 054°02'0 0.0 27.2
2016-Jun-26 02:05N 28°05' W 054°02'1 0.9 27.2
2016-Jun-26 01:20N 28°05' W 054°02'0 2.0 27.2
2016-Jun-26 01:11N 28°05' W 054°02'0 0.0 27.2
2016-Jun-26 00:33N 28°05' W 054°02'0 0.0 27.2
2016-Jun-26 00:28N 28°05' W 054°02'0 0.9 27.2
2016-Jun-26 00:24N 28°04' W 054°02'0 0.0 27.2
2016-Jun-25 23:47N 28°04' W 054°02'118.6 27.2
2016-Jun-25 23:44N 28°04' W 054°01'118.6 27.2
2016-Jun-25 23:41N 28°04' W 054°02'0 5.8 27.2
2016-Jun-25 23:36N 28°04' W 054°01'0 0.4 27.2
2016-Jun-25 22:23N 28°04' W 054°01'0 0.8 27.2
2016-Jun-25 22:07N 28°04' W 054°01'143.8 27.2
2016-Jun-25 22:06N 28°03' W 054°00'0 0.0 27.2
2016-Jun-25 20:46N 28°03' W 054°00'0 3.5 27.2
2016-Jun-25 20:41N 28°04' W 053°60'0 0.0 27.2
2016-Jun-25 20:35N 28°04' W 053°60'0 2.3 27.2
2016-Jun-25 20:26N 28°04' W 053°60'0 0.0 27.2
2016-Jun-25 19:29N 28°04' W 053°60'0 9.7 27.2
2016-Jun-25 19:26N 28°03' W 053°60'1 0.6 27.2
2016-Jun-25 17:50N 28°03' W 053°59'0 0.3 27.2
2016-Jun-25 16:07N 28°03' W 053°58'1 1.0 27.2
2016-Jun-25 14:53N 28°02' W 053°57'1 0.7 27.2
2016-Jun-25 14:04N 28°02' W 053°57'1 0.7 27.2
2016-Jun-25 13:18N 28°01' W 053°57'0 0.8 27.2
2016-Jun-25 13:12N 28°01' W 053°57'1 7.3 27.2
2016-Jun-25 13:06N 28°01' W 053°56'1 0.3 27.2
2016-Jun-25 11:05N 28°01' W 053°55'011.3 27.1
2016-Jun-25 11:03N 28°01' W 053°55'0 0.0 27.1
2016-Jun-25 10:53N 28°01' W 053°55'0 1.8 27.1
2016-Jun-25 10:51N 28°01' W 053°55'1 9.0 27.1
2016-Jun-25 10:46N 28°01' W 053°54'0 0.3 27.1
2016-Jun-25 09:47N 28°01' W 053°54'0 0.3 27.0
2016-Jun-25 09:31N 28°01' W 053°54'0 2.1 27.0
2016-Jun-25 09:25N 28°01' W 053°53'0 1.7 27.0
2016-Jun-25 09:11N 28°01' W 053°54'1 0.6 27.0
2016-Jun-25 08:05N 28°00' W 053°53'1 3.2 27.0
2016-Jun-25 07:46N 28°00' W 053°52'0 0.0 27.0
2016-Jun-25 06:30N 28°00' W 053°52'1 0.8 27.1
2016-Jun-25 04:45N 27°60' W 053°50'1 0.6 27.1
2016-Jun-25 02:27N 28°01' W 053°49'0 0.0 27.3
2016-Jun-25 01:38N 28°01' W 053°49'110.2 27.3
2016-Jun-25 01:34N 28°01' W 053°49'1 0.7 27.3
2016-Jun-25 00:47N 28°02' W 053°49'0 0.3 27.4
2016-Jun-24 23:12N 28°02' W 053°50'0 0.0 27.5
2016-Jun-24 22:46N 28°02' W 053°50'0 0.0 27.5
2016-Jun-24 22:38N 28°02' W 053°50'0 1.6
2016-Jun-24 22:35N 28°02' W 053°50'0 0.9 27.6
2016-Jun-24 22:23N 28°02' W 053°50'123.4 27.6
2016-Jun-24 22:20N 28°03' W 053°51'0 0.0 27.6
2016-Jun-24 21:08N 28°03' W 053°51'0 1.9 27.9
2016-Jun-24 21:03N 28°03' W 053°51'0 0.4 27.9
2016-Jun-24 20:48N 28°03' W 053°51'0 0.4 27.9
2016-Jun-24 19:37N 28°02' W 053°51'1 3.7 28.5
2016-Jun-24 19:22N 28°02' W 053°52'2 0.4 28.5
2016-Jun-24 14:20N 28°02' W 053°50'0 0.1 27.0
2016-Jun-24 13:35N 28°01' W 053°50'0 0.3 26.9
2016-Jun-24 12:43N 28°01' W 053°50'0 3.2 26.9
2016-Jun-24 12:37N 28°01' W 053°50'0 0.0 26.9
2016-Jun-24 11:51N 28°01' W 053°50'0 0.9 26.8
2016-Jun-24 11:31N 28°02' W 053°49'0 0.7 26.8
2016-Jun-24 11:02N 28°01' W 053°49'0 0.0 26.8
2016-Jun-24 10:24N 28°01' W 053°49'0 2.7 26.8
2016-Jun-24 10:18N 28°01' W 053°50'1 1.4 26.8
2016-Jun-24 09:56N 28°01' W 053°49'0 0.1 26.8
2016-Jun-24 09:22N 28°01' W 053°49'0 0.2 26.7
2016-Jun-24 08:46N 28°01' W 053°49'0 1.6 26.7
2016-Jun-24 08:38N 28°02' W 053°49'0 0.6 26.7
2016-Jun-24 08:16N 28°01' W 053°49'013.2 26.7
2016-Jun-24 08:15N 28°02' W 053°49'1 0.3 26.7
2016-Jun-24 06:41N 28°02' W 053°48'0 4.9 26.8
2016-Jun-24 06:37N 28°02' W 053°48'2 0.9 26.8
2016-Jun-24 04:51N 28°03' W 053°47'0 0.0 26.8
2016-Jun-24 02:02N 28°03' W 053°47'0 1.6 26.9
2016-Jun-24 01:53N 28°02' W 053°47'0 0.2 26.9
2016-Jun-24 01:07N 28°03' W 053°47'0 0.3 26.9
2016-Jun-24 00:23N 28°03' W 053°47'0 0.2 26.9
2016-Jun-23 23:29N 28°03' W 053°46'0 0.1 26.9
2016-Jun-23 23:07N 28°03' W 053°46'0 0.2 26.9
2016-Jun-23 22:35N 28°03' W 053°46'0 5.2 27.0
2016-Jun-23 22:32N 28°03' W 053°46'0 0.5 27.0
2016-Jun-23 21:35N 28°03' W 053°46'0 0.0 27.0
2016-Jun-23 21:28N 28°03' W 053°46'1 1.4 27.0
2016-Jun-23 20:53N 28°03' W 053°47'0 0.3
2016-Jun-23 19:53N 28°02' W 053°46'0 4.9 27.1
2016-Jun-23 19:50N 28°02' W 053°46'0 0.7 27.1
2016-Jun-23 19:14N 28°02' W 053°46'0 0.1 27.1
2016-Jun-23 18:07N 28°02' W 053°46'116.3 27.2
2016-Jun-23 18:05N 28°02' W 053°46'1 0.4 27.2
2016-Jun-23 16:30N 28°02' W 053°46'1 0.9 27.1
2016-Jun-23 14:46N 28°00' W 053°46'0 1.4 27.1
2016-Jun-23 14:41N 28°00' W 053°46'0 0.0 27.1
2016-Jun-23 13:59N 28°00' W 053°46'0 0.5 27.0
2016-Jun-23 13:05N 27°60' W 053°46'1 0.8 27.0
2016-Jun-23 12:11N 27°59' W 053°45'0 0.0 27.0
2016-Jun-23 11:16N 27°59' W 053°45'0 3.0 27.0
2016-Jun-23 11:08N 27°59' W 053°45'0 1.0
2016-Jun-23 10:53N 27°59' W 053°45'1 1.1 27.0
2016-Jun-23 10:22N 27°59' W 053°45'0 0.0 27.0
2016-Jun-23 10:19N 27°59' W 053°45'0 0.4 27.0
2016-Jun-23 09:39N 27°58' W 053°45'0 1.7 27.0
2016-Jun-23 09:33N 27°59' W 053°45'0 5.9 27.0
2016-Jun-23 09:29N 27°58' W 053°45'0 0.0 27.0
2016-Jun-23 09:16N 27°58' W 053°45'0 0.4 27.0
2016-Jun-23 08:41N 27°58' W 053°45'0 0.0 27.0
2016-Jun-23 08:37N 27°58' W 053°45'1 4.7 27.0
2016-Jun-23 08:29N 27°59' W 053°44'112.1 27.0
2016-Jun-23 08:23N 27°57' W 053°44'0 0.0
2016-Jun-23 07:34N 27°57' W 053°44'0 0.0 27.0
2016-Jun-23 06:52N 27°57' W 053°44'0 1.1 27.0
2016-Jun-23 06:49N 27°57' W 053°44'116.4 27.0
2016-Jun-23 06:45N 27°57' W 053°43'2 1.0 27.0
2016-Jun-23 05:02N 27°56' W 053°42'0 0.0 27.0
2016-Jun-23 02:21N 27°56' W 053°42'0 9.0 27.0
2016-Jun-23 02:18N 27°55' W 053°42'0 0.3 27.0
2016-Jun-23 01:27N 27°55' W 053°41'0 0.2 27.0
2016-Jun-23 00:43N 27°55' W 053°42'0 1.1 27.0
2016-Jun-23 00:40N 27°55' W 053°42'110.2 27.0
2016-Jun-23 00:35N 27°55' W 053°41'0 0.0 27.0
2016-Jun-22 23:54N 27°55' W 053°41'0 0.0 27.1
2016-Jun-22 23:51N 27°55' W 053°41'1 0.8 27.1
2016-Jun-22 23:00N 27°55' W 053°40'0 0.0 27.1
2016-Jun-22 22:49N 27°55' W 053°40'0 0.4 27.1
2016-Jun-22 22:03N 27°55' W 053°40'0 0.0 27.1
2016-Jun-22 21:51N 27°55' W 053°40'0 0.1 27.1
2016-Jun-22 21:07N 27°55' W 053°40'0 0.4 27.2
2016-Jun-22 20:21N 27°55' W 053°39'0 5.1
2016-Jun-22 20:19N 27°55' W 053°39'0 0.8 27.2
2016-Jun-22 19:59N 27°55' W 053°40'0 0.0 27.2
2016-Jun-22 19:28N 27°55' W 053°40'1 0.6 27.2
2016-Jun-22 18:16N 27°55' W 053°39'0 0.0 27.2
2016-Jun-22 16:38N 27°55' W 053°39'1 0.4 27.1
2016-Jun-22 15:05N 27°54' W 053°39'0 6.5 27.0
2016-Jun-22 15:02N 27°54' W 053°39'0 0.0 27.0
2016-Jun-22 14:19N 27°54' W 053°39'1 8.2 27.0
2016-Jun-22 14:13N 27°54' W 053°38'1 0.9 27.0
2016-Jun-22 13:25N 27°54' W 053°39'1 0.3 26.9
2016-Jun-22 11:30N 27°54' W 053°39'0 0.0 26.9
2016-Jun-22 11:27N 27°54' W 053°39'0 0.7 26.9
2016-Jun-22 10:46N 27°53' W 053°38'1 0.8 26.9
2016-Jun-22 09:49N 27°53' W 053°38'0 1.3 26.9
2016-Jun-22 09:44N 27°53' W 053°38'1 7.2 26.9
2016-Jun-22 09:38N 27°52' W 053°37'0 0.0 26.9
2016-Jun-22 08:38N 27°52' W 053°37'0 0.6
2016-Jun-22 08:08N 27°52' W 053°37'1 0.7 26.9
2016-Jun-22 07:03N 27°52' W 053°36'0 1.1 26.9
2016-Jun-22 07:00N 27°52' W 053°36'211.4 26.9
2016-Jun-22 06:52N 27°50' W 053°35'1 0.8 27.0
2016-Jun-22 05:13N 27°51' W 053°33'0 0.0 27.0
2016-Jun-22 02:41N 27°51' W 053°33'112.8 27.0
2016-Jun-22 02:38N 27°50' W 053°33'0 0.0 27.0
2016-Jun-22 01:53N 27°50' W 053°33'0 5.1 27.0
2016-Jun-22 01:49N 27°50' W 053°32'0 0.1 27.0
2016-Jun-22 01:01N 27°50' W 053°32'1 0.9 27.1
2016-Jun-22 00:15N 27°50' W 053°32'1 4.3 27.1
2016-Jun-22 00:06N 27°50' W 053°31'0 0.0 27.1
2016-Jun-21 23:23N 27°50' W 053°31'0 0.4 27.2
2016-Jun-21 23:00N 27°50' W 053°31'0 1.0 27.2
2016-Jun-21 22:37N 27°50' W 053°30'0 1.2 27.2
2016-Jun-21 22:22N 27°50' W 053°30'112.8 27.2
2016-Jun-21 22:19N 27°50' W 053°30'0 0.0 27.2
2016-Jun-21 21:22N 27°50' W 053°30'0 0.0 27.2
2016-Jun-21 21:19N 27°50' W 053°30'0 3.3 27.2
2016-Jun-21 21:14N 27°51' W 053°29'0 1.4 27.2
2016-Jun-21 20:58N 27°50' W 053°29'0 0.0 27.2
2016-Jun-21 20:53N 27°50' W 053°29'0 1.8 27.2
2016-Jun-21 20:44N 27°50' W 053°29'0 0.1 27.2
2016-Jun-21 19:39N 27°50' W 053°29'1 0.7 27.2
2016-Jun-21 18:27N 27°50' W 053°28'1 0.5 27.2
2016-Jun-21 16:52N 27°49' W 053°28'2 1.2 27.2
2016-Jun-21 15:23N 27°48' W 053°26'0 0.0 27.1
2016-Jun-21 14:39N 27°48' W 053°26'0 3.4 27.0
2016-Jun-21 14:36N 27°48' W 053°26'1 0.9 27.0
2016-Jun-21 13:45N 27°48' W 053°25'1 1.2 27.0
2016-Jun-21 13:01N 27°47' W 053°25'1 3.4 27.0
2016-Jun-21 12:51N 27°47' W 053°24'1 0.7 27.0
2016-Jun-21 11:58N 27°47' W 053°24'0 0.0 27.0
2016-Jun-21 11:39N 27°47' W 053°24'1 1.6 27.0
2016-Jun-21 11:07N 27°46' W 053°23'1 0.8 27.0
2016-Jun-21 10:17N 27°47' W 053°22'1 2.5 26.9
2016-Jun-21 10:00N 27°46' W 053°21'0 0.0 26.9
2016-Jun-21 09:54N 27°46' W 053°21'0 1.6 26.9
2016-Jun-21 09:51N 27°46' W 053°21'1 0.8 26.9
2016-Jun-21 08:40N 27°46' W 053°20'0 0.9 27.0
2016-Jun-21 08:32N 27°46' W 053°20'1 3.0 27.0
2016-Jun-21 08:12N 27°46' W 053°19'0 0.0 27.0
2016-Jun-21 07:48N 27°46' W 053°19'0 0.1 27.0
2016-Jun-21 07:13N 27°46' W 053°19'1 8.2 27.0
2016-Jun-21 07:06N 27°46' W 053°18'0 0.1 27.0
2016-Jun-21 05:30N 27°46' W 053°18'3 1.1 27.0
2016-Jun-21 02:14N 27°46' W 053°14'0 0.0 27.0
2016-Jun-21 01:23N 27°46' W 053°14'0 3.9 27.0
2016-Jun-21 01:17N 27°46' W 053°14'0 0.1 27.0
2016-Jun-21 00:29N 27°46' W 053°14'1 1.1 27.0
2016-Jun-20 23:43N 27°46' W 053°13'0 4.9 27.0
2016-Jun-20 23:40N 27°45' W 053°13'1 1.3 27.0
2016-Jun-20 23:07N 27°46' W 053°12'0 0.0 27.0
2016-Jun-20 23:04N 27°46' W 053°12'2 1.5 27.0
2016-Jun-20 21:32N 27°45' W 053°10'0 5.1 27.1
2016-Jun-20 21:30N 27°45' W 053°10'0 1.2 27.1
2016-Jun-20 21:22N 27°45' W 053°10'2 4.6 27.1
2016-Jun-20 21:02N 27°44' W 053°08'0 0.1 27.1
2016-Jun-20 19:52N 27°44' W 053°08'1 2.9 27.2
2016-Jun-20 19:29N 27°45' W 053°07'0 0.0 27.2
2016-Jun-20 18:43N 27°45' W 053°07'0 2.1 27.2
2016-Jun-20 18:40N 27°45' W 053°07'2 1.1 27.2
2016-Jun-20 17:05N 27°44' W 053°05'0 1.6 27.2
2016-Jun-20 17:02N 27°44' W 053°05'2 1.1 27.2
2016-Jun-20 14:53N 27°44' W 053°02'1 1.0 27.0
2016-Jun-20 14:07N 27°45' W 053°01'1 7.3 27.0
2016-Jun-20 14:01N 27°45' W 053°01'0 0.0 27.0
2016-Jun-20 13:22N 27°45' W 053°01'0 1.7 27.0
2016-Jun-20 13:16N 27°45' W 053°01'   27.0

Dump ship's entire track history